Ballantine, Montana
Current Conditions -  °F | °C
As of 7:53 AM on Thursday 30 Oct 2014 (Local Time) from KBIL Reporting Station
Scattered Clouds Scattered Clouds  
Wind Chill: 25°   Ceiling: Unl
Heat Index: 34°   Visibility: 10mi
Dew Point: 25°   Wind: 13mph
Humidity: 70%   Direction: 220°SW
Pressure: 30.29"   Gusts: NA
Location:  45.95°N, 108.15°W
Report Text: KBIL 301353Z 22011KT 10SM FEW095 SCT240 01/M04 A3029 RMK AO2 SLP272 T00111039
Loading
Personal Weather Stations






























Interactive Weather Map
Tropical Storm Tracking
New forecast layout! Learn more

10-Day Weather Forecast

Advertisements
Track Severe Weather on mobile